Terminal Aerodrome Forecast
Issued by NWS Wilmington, OH

Home | Current Version | Previous Version | Text Only | Print | Product List | Glossary On
Versions: 1 2 3 4 5 6 7 8 9 10 11 12 13 14 15 16 17 18 19 20
236
FTUS41 KILN 241745 RRA
TAFDAY
TAF
KDAY 241745Z 2418/2518 30010KT P6SM OVC012
     FM242100 29007KT P6SM OVC020
     FM250200 VRB03KT P6SM BKN025
     FM250400 VRB03KT P6SM BKN090
     FM250700 16007KT P6SM BKN090
     FM251200 17010KT P6SM BKN020
     FM251400 18012KT P6SM BKN016
     FM251700 21014G24KT P6SM BKN016=

USA.gov is the U.S. government's official web portal to all federal, state and local government web resources and services.